TLPC/SLU METAR and TAF weather

Enter ICAO airport designator
Station Type Date Time Source
TLPC METAR 2020/09/27 00:00 UTC NOAA

TLPC 270000Z 08004KT 9999 FEW021 29/25 Q1012 NOSIG


Station Type Date Time Source
TLPC Decoded METAR 2020/09/27 00:00 UTC NOAA

Vigie, Saint Lucia (TLPC) 14-01N 061-00W 2M
Sep 26, 2020 - 08:00 PM EDT / 2020.09.27 0000 UTC
Wind: from the E (080 degrees) at 5 MPH (4 KT):0
Visibility: greater than 7 mile(s):0
Sky conditions: mostly clear
Temperature: 84 F (29 C)
Dew Point: 77 F (25 C)
Relative Humidity: 79%
Pressure (altimeter): 29.88 in. Hg (1012 hPa)
ob: TLPC 270000Z 08004KT 9999 FEW021 29/25 Q1012 NOSIG
cycle: 0

Station Type Date Time Source
TLPC TAF 2020/09/26 18:59 UTC NOAA

TAF TLPC 261659Z 2618/2718 09005KT 9999 SCT025
TEMPO 2706/2718 SHRA FEW016CB

Example: see airport list